Time;durP1;ratioP1;P1;durP2;ratioP2;P2;SDS_P1;SDS_P2;PMS_P1;PMS_P2;Temp;Humidity;BMP_temperature;BMP_pressure;BME280_temperature;BME280_humidity;BME280_pressure;Samples;Min_cycle;Max_cycle;Signal;HPM_P1;HPM_P2
2022/05/08 00:01:16;;;;;;;26.25;23.70;;;;;;;;;;5045475;28;20037;-68
2022/05/08 00:03:42;;;;;;;25.50;23.20;;;;;;;;;;5048912;28;20071;-69
2022/05/08 00:06:10;;;;;;;25.92;23.58;;;;;;;;;;5039886;28;20091;-70
2022/05/08 00:08:37;;;;;;;26.92;24.15;;;;;;;;;;5039570;28;20503;-73
2022/05/08 00:11:03;;;;;;;26.67;24.38;;;;;;;;;;5041044;28;20602;-68
2022/05/08 00:13:30;;;;;;;26.75;24.17;;;;;;;;;;5042413;28;20044;-69
2022/05/08 00:15:56;;;;;;;27.05;24.23;;;;;;;;;;5042257;28;20036;-70
2022/05/08 00:18:23;;;;;;;27.90;25.13;;;;;;;;;;5046352;28;20561;-68
2022/05/08 00:20:49;;;;;;;27.27;24.85;;;;;;;;;;5047313;28;20032;-70
2022/05/08 00:23:14;;;;;;;28.10;25.33;;;;;;;;;;5045293;28;20086;-71
2022/05/08 00:25:42;;;;;;;29.10;26.20;;;;;;;;;;5036292;28;20626;-69
2022/05/08 00:28:08;;;;;;;28.52;25.80;;;;;;;;;;5041218;28;20582;-68
2022/05/08 00:30:34;;;;;;;29.63;26.70;;;;;;;;;;5047616;28;20116;-68
2022/05/08 00:32:59;;;;;;;29.65;26.52;;;;;;;;;;5041183;28;20042;-68
2022/05/08 00:35:26;;;;;;;29.08;26.08;;;;;;;;;;5038994;28;20044;-71
2022/05/08 00:37:51;;;;;;;29.33;26.38;;;;;;;;;;5040080;28;20099;-69
2022/05/08 00:40:17;;;;;;;29.55;26.65;;;;;;;;;;5011001;28;20418;-70
2022/05/08 00:42:43;;;;;;;30.27;27.17;;;;;;;;;;5037634;28;20037;-70
2022/05/08 00:45:09;;;;;;;30.00;26.80;;;;;;;;;;5043081;28;20054;-69
2022/05/08 00:47:36;;;;;;;31.10;27.75;;;;;;;;;;5041828;28;20111;-69
2022/05/08 00:50:02;;;;;;;29.65;26.63;;;;;;;;;;5040610;28;20033;-68
2022/05/08 00:52:29;;;;;;;28.80;26.08;;;;;;;;;;5017422;28;20029;-68
2022/05/08 00:54:59;;;;;;;29.98;26.88;;;;;;;;;;5035118;28;20045;-70
2022/05/08 00:57:25;;;;;;;29.15;26.40;;;;;;;;;;5041425;28;20420;-68
2022/05/08 00:59:51;;;;;;;29.65;26.55;;;;;;;;;;5040743;28;20036;-70
2022/05/08 01:02:17;;;;;;;30.20;27.13;;;;;;;;;;5048233;28;20040;-68
2022/05/08 01:04:43;;;;;;;30.95;27.60;;;;;;;;;;5039696;28;20094;-68
2022/05/08 01:07:08;;;;;;;31.35;27.45;;;;;;;;;;5027127;28;20037;-69
2022/05/08 01:09:34;;;;;;;29.02;26.33;;;;;;;;;;5024329;28;20072;-68
2022/05/08 01:12:01;;;;;;;31.42;28.05;;;;;;;;;;5040726;28;20044;-70
2022/05/08 01:14:27;;;;;;;32.25;28.85;;;;;;;;;;5037757;28;20040;-69
2022/05/08 01:16:52;;;;;;;32.78;29.27;;;;;;;;;;5044946;28;20088;-68
2022/05/08 01:19:18;;;;;;;33.95;30.58;;;;;;;;;;5022257;28;20036;-69
2022/05/08 01:21:43;;;;;;;35.00;31.25;;;;;;;;;;5041137;28;20048;-68
2022/05/08 01:24:10;;;;;;;33.63;29.42;;;;;;;;;;5029731;28;20163;-68
2022/05/08 01:26:36;;;;;;;33.55;28.70;;;;;;;;;;5042435;28;21503;-71
2022/05/08 01:29:02;;;;;;;33.90;30.40;;;;;;;;;;5018026;28;20691;-69
2022/05/08 01:31:29;;;;;;;33.30;29.88;;;;;;;;;;5040751;28;20584;-67
2022/05/08 01:33:55;;;;;;;33.25;29.38;;;;;;;;;;5038190;28;20033;-70
2022/05/08 01:36:21;;;;;;;32.38;29.05;;;;;;;;;;5039902;28;20517;-69
2022/05/08 01:38:48;;;;;;;33.28;29.08;;;;;;;;;;5025191;28;20521;-69
2022/05/08 01:41:14;;;;;;;31.98;28.73;;;;;;;;;;5039608;28;20116;-68
2022/05/08 01:43:41;;;;;;;33.33;29.83;;;;;;;;;;5038161;28;20174;-69
2022/05/08 01:46:07;;;;;;;31.65;28.42;;;;;;;;;;5038284;28;20523;-72
2022/05/08 01:48:34;;;;;;;31.05;27.80;;;;;;;;;;5038733;28;20033;-70
2022/05/08 01:51:02;;;;;;;32.05;28.63;;;;;;;;;;5038631;28;20037;-69
2022/05/08 01:53:31;;;;;;;32.58;29.20;;;;;;;;;;5024854;28;20041;-71
2022/05/08 01:55:57;;;;;;;34.58;30.27;;;;;;;;;;5037057;28;20354;-69
2022/05/08 01:58:25;;;;;;;34.78;30.45;;;;;;;;;;5042855;28;20037;-70
2022/05/08 02:00:52;;;;;;;33.38;29.90;;;;;;;;;;5042560;28;20055;-68
2022/05/08 02:03:19;;;;;;;34.90;30.25;;;;;;;;;;5046030;28;20033;-69
2022/05/08 02:05:46;;;;;;;33.92;29.92;;;;;;;;;;5040217;28;20163;-67
2022/05/08 02:08:11;;;;;;;32.63;28.92;;;;;;;;;;5049093;28;20036;-67
2022/05/08 02:10:38;;;;;;;31.75;28.45;;;;;;;;;;5050284;28;20060;-69
2022/05/08 02:13:04;;;;;;;32.38;28.88;;;;;;;;;;5043914;28;20037;-69
2022/05/08 02:15:30;;;;;;;38.33;29.92;;;;;;;;;;5036683;28;20354;-69
2022/05/08 02:18:00;;;;;;;33.22;29.73;;;;;;;;;;5048086;28;20472;-70
2022/05/08 02:20:25;;;;;;;31.15;27.85;;;;;;;;;;5046655;28;20125;-68
2022/05/08 02:22:51;;;;;;;30.92;27.65;;;;;;;;;;5039337;28;20037;-69
2022/05/08 02:25:17;;;;;;;32.00;28.65;;;;;;;;;;5024506;28;20118;-68
2022/05/08 02:27:46;;;;;;;35.40;29.38;;;;;;;;;;5029103;28;20033;-68
2022/05/08 02:30:12;;;;;;;34.35;30.60;;;;;;;;;;5040968;28;20043;-69
2022/05/08 02:32:38;;;;;;;35.17;30.27;;;;;;;;;;5042240;28;20042;-68
2022/05/08 02:35:06;;;;;;;34.30;29.27;;;;;;;;;;5038953;28;20037;-68
2022/05/08 02:37:32;;;;;;;32.22;28.83;;;;;;;;;;5041332;28;20087;-67
2022/05/08 02:39:58;;;;;;;32.25;28.80;;;;;;;;;;5040834;28;20025;-69
2022/05/08 02:42:24;;;;;;;31.13;27.95;;;;;;;;;;5006267;28;20385;-68
2022/05/08 02:44:49;;;;;;;34.00;28.65;;;;;;;;;;5038160;28;20037;-69
2022/05/08 02:47:15;;;;;;;34.13;28.50;;;;;;;;;;5035691;28;20029;-71
2022/05/08 02:49:41;;;;;;;32.85;28.42;;;;;;;;;;5039019;28;20040;-70
2022/05/08 02:52:07;;;;;;;33.17;28.77;;;;;;;;;;5043139;28;20033;-72
2022/05/08 02:54:32;;;;;;;32.00;28.15;;;;;;;;;;5043490;28;20035;-70
2022/05/08 02:59:41;;;;;;;34.03;27.33;;;;;;;;;;5027993;28;20447;-70
2022/05/08 03:02:10;;;;;;;33.65;27.98;;;;;;;;;;5037572;28;20040;-69
2022/05/08 03:04:36;;;;;;;31.15;27.73;;;;;;;;;;5037419;28;20033;-69
2022/05/08 03:07:02;;;;;;;32.88;29.20;;;;;;;;;;5043558;28;20040;-70
2022/05/08 03:09:28;;;;;;;35.65;29.08;;;;;;;;;;5045333;28;20087;-70
2022/05/08 03:11:54;;;;;;;30.80;27.65;;;;;;;;;;5042205;28;20346;-69
2022/05/08 03:14:20;;;;;;;32.03;28.95;;;;;;;;;;5039958;28;20037;-68
2022/05/08 03:16:47;;;;;;;33.35;29.95;;;;;;;;;;5047750;28;20478;-70
2022/05/08 03:19:13;;;;;;;33.50;29.02;;;;;;;;;;5045284;28;20033;-68
2022/05/08 03:21:40;;;;;;;32.85;29.23;;;;;;;;;;5039662;28;20083;-68
2022/05/08 03:24:10;;;;;;;35.20;28.08;;;;;;;;;;5036517;28;20072;-69
2022/05/08 03:26:36;;;;;;;32.08;28.67;;;;;;;;;;5036064;28;20107;-69
2022/05/08 03:29:03;;;;;;;31.02;27.67;;;;;;;;;;5046761;28;20068;-70
2022/05/08 03:31:28;;;;;;;31.90;27.38;;;;;;;;;;5042445;28;20090;-70
2022/05/08 03:33:55;;;;;;;31.92;28.63;;;;;;;;;;5039379;28;20488;-69
2022/05/08 03:36:21;;;;;;;34.55;28.83;;;;;;;;;;5039625;28;20051;-71
2022/05/08 03:38:47;;;;;;;30.80;27.38;;;;;;;;;;5043446;28;20488;-70
2022/05/08 03:41:16;;;;;;;35.22;27.90;;;;;;;;;;5041858;28;20548;-68
2022/05/08 03:43:46;;;;;;;30.92;27.50;;;;;;;;;;5035118;28;20174;-69
2022/05/08 03:46:15;;;;;;;30.90;27.65;;;;;;;;;;5036891;28;20041;-69
2022/05/08 03:48:41;;;;;;;32.67;27.95;;;;;;;;;;5043386;28;20125;-68
2022/05/08 03:51:08;;;;;;;32.08;27.27;;;;;;;;;;5048343;28;20477;-69
2022/05/08 03:53:36;;;;;;;31.17;27.90;;;;;;;;;;5038182;28;20515;-68
2022/05/08 03:56:03;;;;;;;31.77;28.42;;;;;;;;;;5039850;28;20274;-67
2022/05/08 03:58:28;;;;;;;34.40;27.65;;;;;;;;;;5048177;28;20059;-68
2022/05/08 04:00:54;;;;;;;32.10;27.75;;;;;;;;;;5045927;28;20094;-68
2022/05/08 04:03:21;;;;;;;31.63;28.27;;;;;;;;;;5041416;28;20078;-68
2022/05/08 04:05:46;;;;;;;32.45;27.42;;;;;;;;;;5047897;28;20041;-68
2022/05/08 04:08:12;;;;;;;33.35;28.33;;;;;;;;;;5028951;28;20028;-70
2022/05/08 04:10:37;;;;;;;33.75;28.45;;;;;;;;;;5039391;28;20029;-70
2022/05/08 04:13:03;;;;;;;32.45;28.42;;;;;;;;;;5045272;28;20033;-68
2022/05/08 04:18:13;;;;;;;32.80;27.75;;;;;;;;;;5039311;28;20043;-68
2022/05/08 04:20:38;;;;;;;32.47;29.08;;;;;;;;;;5014973;28;20029;-68
2022/05/08 04:25:52;;;;;;;30.95;27.67;;;;;;;;;;5032796;28;20048;-70
2022/05/08 04:28:21;;;;;;;32.58;29.02;;;;;;;;;;5040751;28;20029;-70
2022/05/08 04:30:48;;;;;;;36.00;30.05;;;;;;;;;;5042304;28;20488;-69
2022/05/08 04:33:14;;;;;;;30.73;27.48;;;;;;;;;;5047634;28;20036;-68
2022/05/08 04:35:40;;;;;;;36.25;27.55;;;;;;;;;;5041088;28;20444;-67
2022/05/08 04:38:05;;;;;;;34.50;28.67;;;;;;;;;;5047428;28;20124;-69
2022/05/08 04:40:31;;;;;;;31.83;27.95;;;;;;;;;;5043586;28;20040;-68
2022/05/08 04:42:57;;;;;;;34.63;28.25;;;;;;;;;;5042866;28;20435;-70
2022/05/08 04:45:22;;;;;;;31.25;27.75;;;;;;;;;;5035970;28;20407;-68
2022/05/08 04:47:48;;;;;;;33.42;28.25;;;;;;;;;;5036962;28;20036;-68
2022/05/08 04:50:14;;;;;;;33.75;30.08;;;;;;;;;;5034467;28;20033;-68
2022/05/08 04:52:39;;;;;;;32.60;28.77;;;;;;;;;;5039535;28;21095;-69
2022/05/08 04:55:05;;;;;;;32.08;28.55;;;;;;;;;;5017289;28;20064;-69
2022/05/08 04:57:31;;;;;;;31.83;28.38;;;;;;;;;;5035792;28;20091;-68
2022/05/08 04:59:57;;;;;;;30.67;27.48;;;;;;;;;;5044617;28;20041;-68
2022/05/08 05:02:23;;;;;;;30.85;27.65;;;;;;;;;;5047681;28;20037;-69
2022/05/08 05:04:49;;;;;;;29.85;26.85;;;;;;;;;;5033005;28;20036;-68
2022/05/08 05:07:14;;;;;;;29.38;26.55;;;;;;;;;;5039246;28;20067;-70
2022/05/08 05:09:40;;;;;;;29.10;26.23;;;;;;;;;;5039982;28;20051;-69
2022/05/08 05:12:06;;;;;;;30.85;27.52;;;;;;;;;;5047495;28;20048;-69
2022/05/08 05:14:32;;;;;;;28.92;25.88;;;;;;;;;;5036615;28;20033;-69
2022/05/08 05:17:00;;;;;;;32.10;28.80;;;;;;;;;;5036521;28;20035;-69
2022/05/08 05:19:29;;;;;;;30.92;27.75;;;;;;;;;;5047245;28;20036;-71
2022/05/08 05:21:55;;;;;;;29.63;26.63;;;;;;;;;;5045907;28;20028;-70
2022/05/08 05:24:20;;;;;;;30.42;27.15;;;;;;;;;;5023710;28;20520;-70
2022/05/08 05:26:46;;;;;;;30.38;27.30;;;;;;;;;;5041934;28;20426;-71
2022/05/08 05:29:13;;;;;;;29.40;26.48;;;;;;;;;;5023019;28;20052;-71
2022/05/08 05:31:38;;;;;;;30.42;27.33;;;;;;;;;;5040658;28;20112;-68
2022/05/08 05:34:04;;;;;;;29.20;26.02;;;;;;;;;;5039651;28;20715;-71
2022/05/08 05:36:29;;;;;;;27.73;24.95;;;;;;;;;;5008279;28;20033;-70
2022/05/08 05:38:55;;;;;;;28.13;25.20;;;;;;;;;;5025265;28;20560;-70
2022/05/08 05:41:20;;;;;;;29.25;26.27;;;;;;;;;;5051153;28;20388;-71
2022/05/08 05:43:46;;;;;;;29.77;26.65;;;;;;;;;;5049190;28;20037;-70
2022/05/08 05:48:56;;;;;;;29.00;25.95;;;;;;;;;;5048298;28;20037;-69
2022/05/08 05:51:21;;;;;;;29.50;25.58;;;;;;;;;;5040402;28;20769;-69
2022/05/08 05:53:47;;;;;;;31.10;26.35;;;;;;;;;;5045331;28;20470;-71
2022/05/08 05:56:12;;;;;;;29.05;26.27;;;;;;;;;;5040831;28;20033;-70
2022/05/08 05:58:38;;;;;;;28.58;25.77;;;;;;;;;;5011717;28;20034;-71
2022/05/08 06:01:03;;;;;;;28.05;25.10;;;;;;;;;;5046981;28;20167;-70
2022/05/08 06:03:29;;;;;;;28.00;25.17;;;;;;;;;;5051684;28;20571;-70
2022/05/08 06:05:54;;;;;;;27.02;24.27;;;;;;;;;;5031093;28;20052;-70
2022/05/08 06:08:20;;;;;;;27.50;24.77;;;;;;;;;;5042978;28;20037;-70
2022/05/08 06:10:46;;;;;;;26.45;23.75;;;;;;;;;;5032334;28;20045;-70
2022/05/08 06:13:12;;;;;;;27.52;24.70;;;;;;;;;;5044335;28;20037;-70
2022/05/08 06:15:38;;;;;;;25.70;23.20;;;;;;;;;;5045329;28;20036;-70
2022/05/08 06:18:04;;;;;;;26.73;23.85;;;;;;;;;;5045142;28;20033;-70
2022/05/08 06:20:29;;;;;;;26.25;23.65;;;;;;;;;;5041908;28;20037;-71
2022/05/08 06:22:55;;;;;;;26.35;23.83;;;;;;;;;;5042607;28;20033;-70
2022/05/08 06:25:21;;;;;;;26.33;23.73;;;;;;;;;;5047225;28;20527;-69
2022/05/08 06:27:46;;;;;;;23.95;21.65;;;;;;;;;;5027763;28;20039;-70
2022/05/08 06:30:12;;;;;;;26.55;23.95;;;;;;;;;;5049751;28;20039;-71
2022/05/08 06:32:38;;;;;;;23.88;21.77;;;;;;;;;;5039541;28;20041;-71
2022/05/08 06:35:04;;;;;;;24.45;22.13;;;;;;;;;;5046698;28;20488;-71
2022/05/08 06:37:29;;;;;;;24.27;22.08;;;;;;;;;;5053580;28;20033;-70
2022/05/08 06:39:55;;;;;;;24.83;22.58;;;;;;;;;;5048960;28;20431;-71
2022/05/08 06:42:20;;;;;;;24.45;22.23;;;;;;;;;;5045475;28;20079;-71
2022/05/08 06:44:52;;;;;;;25.33;22.92;;;;;;;;;;5046577;28;20040;-69
2022/05/08 06:47:18;;;;;;;24.88;22.55;;;;;;;;;;5046217;28;20467;-69
2022/05/08 06:49:43;;;;;;;26.10;23.67;;;;;;;;;;5045633;28;20025;-68
2022/05/08 06:52:09;;;;;;;26.40;23.88;;;;;;;;;;5040354;28;20029;-71
2022/05/08 06:54:35;;;;;;;26.55;23.95;;;;;;;;;;5051078;28;20115;-70
2022/05/08 06:57:00;;;;;;;25.88;23.23;;;;;;;;;;5046749;28;20065;-70
2022/05/08 07:02:11;;;;;;;24.65;22.38;;;;;;;;;;5048556;28;20507;-70
2022/05/08 07:04:40;;;;;;;24.35;21.88;;;;;;;;;;5047991;28;20053;-70
2022/05/08 07:07:05;;;;;;;24.38;21.90;;;;;;;;;;5047236;28;20449;-71
2022/05/08 07:09:33;;;;;;;24.75;22.40;;;;;;;;;;5035104;28;20036;-70
2022/05/08 07:11:58;;;;;;;24.20;22.08;;;;;;;;;;5047627;28;20033;-69
2022/05/08 07:14:24;;;;;;;24.83;22.52;;;;;;;;;;5028026;28;20689;-69
2022/05/08 07:16:50;;;;;;;25.17;22.90;;;;;;;;;;5040291;28;20477;-70
2022/05/08 07:19:15;;;;;;;25.65;23.35;;;;;;;;;;5025735;28;20037;-69
2022/05/08 07:21:41;;;;;;;24.95;22.75;;;;;;;;;;5050228;28;20063;-69
2022/05/08 07:24:07;;;;;;;25.25;22.92;;;;;;;;;;5041473;28;20190;-68
2022/05/08 07:26:32;;;;;;;25.75;23.35;;;;;;;;;;5045859;28;20069;-68
2022/05/08 07:28:58;;;;;;;25.98;23.45;;;;;;;;;;5045437;28;20064;-71
2022/05/08 07:31:24;;;;;;;25.20;22.85;;;;;;;;;;5047849;28;20086;-69
2022/05/08 07:36:36;;;;;;;25.73;23.40;;;;;;;;;;5001743;28;20087;-70
2022/05/08 07:39:02;;;;;;;25.58;23.25;;;;;;;;;;5049704;28;20055;-69
2022/05/08 07:41:29;;;;;;;29.10;23.38;;;;;;;;;;5051212;28;20068;-69
2022/05/08 07:43:54;;;;;;;25.15;22.83;;;;;;;;;;5046337;28;20028;-69
2022/05/08 07:46:20;;;;;;;24.73;22.65;;;;;;;;;;5047475;28;20109;-69
2022/05/08 07:48:45;;;;;;;22.80;20.60;;;;;;;;;;5051018;28;20404;-69
2022/05/08 07:51:11;;;;;;;22.05;20.25;;;;;;;;;;5047440;28;20068;-70
2022/05/08 07:53:37;;;;;;;23.75;21.58;;;;;;;;;;5036573;28;20067;-68
2022/05/08 07:56:03;;;;;;;22.63;20.63;;;;;;;;;;5040873;28;20082;-69
2022/05/08 07:58:31;;;;;;;21.88;19.98;;;;;;;;;;5028580;28;20040;-68
2022/05/08 08:00:57;;;;;;;22.75;20.60;;;;;;;;;;5043047;28;20040;-67
2022/05/08 08:03:24;;;;;;;23.38;21.27;;;;;;;;;;5039541;28;20044;-69
2022/05/08 08:05:50;;;;;;;22.08;20.05;;;;;;;;;;5039068;28;20037;-67
2022/05/08 08:08:17;;;;;;;20.73;18.92;;;;;;;;;;5052296;28;20033;-69
2022/05/08 08:10:43;;;;;;;20.15;18.52;;;;;;;;;;5053785;28;20041;-68
2022/05/08 08:13:09;;;;;;;20.02;18.15;;;;;;;;;;5046167;28;20057;-67
2022/05/08 08:15:44;;;;;;;19.90;18.20;;;;;;;;;;5049399;28;20525;-68
2022/05/08 08:18:11;;;;;;;19.98;18.38;;;;;;;;;;5037308;28;20049;-71
2022/05/08 08:20:37;;;;;;;20.85;18.58;;;;;;;;;;5051228;28;20037;-68
2022/05/08 08:23:03;;;;;;;19.98;18.38;;;;;;;;;;5039393;28;20056;-68
2022/05/08 08:25:29;;;;;;;19.98;18.38;;;;;;;;;;5042711;28;20036;-69
2022/05/08 08:27:55;;;;;;;21.20;19.30;;;;;;;;;;5026816;28;20495;-70
2022/05/08 08:30:21;;;;;;;20.98;18.92;;;;;;;;;;5044157;28;20029;-67
2022/05/08 08:32:47;;;;;;;20.30;18.60;;;;;;;;;;5038435;28;20045;-70
2022/05/08 08:35:13;;;;;;;20.35;18.65;;;;;;;;;;5025803;28;20512;-66
2022/05/08 08:37:39;;;;;;;20.27;18.60;;;;;;;;;;5045076;28;20033;-69
2022/05/08 08:40:05;;;;;;;20.83;18.88;;;;;;;;;;5038689;28;20032;-70
2022/05/08 08:42:31;;;;;;;20.55;18.75;;;;;;;;;;5047533;28;20037;-72
2022/05/08 08:47:58;;;;;;;20.58;18.83;;;;;;;;;;5043105;28;20037;-67
2022/05/08 08:50:27;;;;;;;20.67;18.98;;;;;;;;;;5045456;28;20037;-68
2022/05/08 08:52:56;;;;;;;20.95;19.23;;;;;;;;;;5043338;28;20124;-68
2022/05/08 08:55:22;;;;;;;21.13;19.33;;;;;;;;;;5018834;28;20515;-66
2022/05/08 08:57:49;;;;;;;19.88;18.27;;;;;;;;;;5025991;28;20043;-67
2022/05/08 09:00:15;;;;;;;20.40;18.70;;;;;;;;;;5047040;28;20028;-68
2022/05/08 09:02:41;;;;;;;20.48;18.67;;;;;;;;;;5042409;28;20047;-67
2022/05/08 09:05:09;;;;;;;20.00;18.30;;;;;;;;;;5043704;28;20041;-71
2022/05/08 09:07:36;;;;;;;18.45;16.90;;;;;;;;;;5040027;28;20062;-69
2022/05/08 09:10:22;;;;;;;19.95;17.92;;;;;;;;;;5044653;28;20036;-65
2022/05/08 09:12:53;;;;;;;18.73;17.13;;;;;;;;;;5044889;28;20041;-68
2022/05/08 09:15:29;;;;;;;19.35;17.52;;;;;;;;;;5049059;28;20092;-67
2022/05/08 09:18:06;;;;;;;17.55;16.05;;;;;;;;;;5042701;28;20036;-67
2022/05/08 09:20:36;;;;;;;18.35;16.88;;;;;;;;;;5044417;28;20519;-68
2022/05/08 09:23:19;;;;;;;18.95;17.45;;;;;;;;;;5023359;28;20038;-65
2022/05/08 09:25:49;;;;;;;18.00;16.52;;;;;;;;;;5043995;28;20037;-68
2022/05/08 09:28:28;;;;;;;18.75;17.25;;;;;;;;;;5041151;28;20150;-69
2022/05/08 09:31:01;;;;;;;18.90;17.15;;;;;;;;;;5036484;28;20076;-68
2022/05/08 09:33:34;;;;;;;18.20;16.63;;;;;;;;;;5035508;28;20033;-70
2022/05/08 09:36:08;;;;;;;17.00;15.65;;;;;;;;;;5037630;28;20033;-64
2022/05/08 09:38:48;;;;;;;16.13;14.90;;;;;;;;;;5044023;28;20041;-69
2022/05/08 10:17:14;;;;;;;15.02;13.80;;;;;;;;;;5043886;28;20420;-63
2022/05/08 10:19:40;;;;;;;14.88;13.40;;;;;;;;;;5041030;28;20448;-63
2022/05/08 10:22:06;;;;;;;14.52;13.32;;;;;;;;;;5034949;28;20050;-62
2022/05/08 10:24:36;;;;;;;14.40;13.05;;;;;;;;;;5014380;28;20082;-62
2022/05/08 10:27:19;;;;;;;13.75;12.65;;;;;;;;;;4997710;28;20039;-61
2022/05/08 10:29:51;;;;;;;13.48;12.48;;;;;;;;;;5000986;28;20041;-62
2022/05/08 10:32:31;;;;;;;12.95;12.05;;;;;;;;;;4997528;28;20064;-61
2022/05/08 10:35:27;;;;;;;13.50;12.50;;;;;;;;;;4999116;28;20046;-61
2022/05/08 10:38:02;;;;;;;14.35;12.57;;;;;;;;;;4998621;28;20058;-62
2022/05/08 10:40:27;;;;;;;13.38;12.27;;;;;;;;;;5000808;28;20046;-64
2022/05/08 10:42:55;;;;;;;13.40;12.30;;;;;;;;;;4999884;28;20053;-62
2022/05/08 10:45:32;;;;;;;13.00;12.00;;;;;;;;;;5000259;28;20029;-59
2022/05/08 10:48:08;;;;;;;12.68;11.75;;;;;;;;;;4998284;28;20113;-61
2022/05/08 10:50:38;;;;;;;14.18;12.98;;;;;;;;;;4985277;28;20030;-61
2022/05/08 10:53:04;;;;;;;12.55;11.68;;;;;;;;;;4996586;28;20053;-62
2022/05/08 10:55:30;;;;;;;13.05;11.85;;;;;;;;;;4997157;28;20069;-61
2022/05/08 10:57:56;;;;;;;12.85;11.85;;;;;;;;;;4994598;28;20296;-63
2022/05/08 11:00:24;;;;;;;12.68;11.68;;;;;;;;;;4996986;28;20063;-63
2022/05/08 11:02:57;;;;;;;12.68;11.68;;;;;;;;;;4998281;28;20405;-64
2022/05/08 11:05:25;;;;;;;13.00;11.88;;;;;;;;;;4996465;28;20429;-63
2022/05/08 11:07:59;;;;;;;11.48;10.77;;;;;;;;;;4998133;28;20033;-64
2022/05/08 11:10:32;;;;;;;12.82;11.98;;;;;;;;;;4992385;28;20038;-63
2022/05/08 11:13:02;;;;;;;12.20;11.30;;;;;;;;;;4992055;28;20370;-64
2022/05/08 11:15:29;;;;;;;11.82;10.93;;;;;;;;;;5000014;28;20041;-63
2022/05/08 11:18:07;;;;;;;11.70;10.57;;;;;;;;;;4997553;28;20038;-64
2022/05/08 11:20:59;;;;;;;11.80;10.90;;;;;;;;;;4990879;28;20030;-63
2022/05/08 11:23:28;;;;;;;11.63;10.73;;;;;;;;;;4993581;28;20046;-64
2022/05/08 11:25:55;;;;;;;12.75;11.65;;;;;;;;;;4993606;28;20034;-64
2022/05/08 11:28:26;;;;;;;11.82;10.95;;;;;;;;;;4983291;28;20046;-64
2022/05/08 11:30:53;;;;;;;12.07;11.20;;;;;;;;;;4984444;28;20724;-64
2022/05/08 11:36:23;;;;;;;11.93;10.95;;;;;;;;;;4982342;28;20034;-64
2022/05/08 11:39:02;;;;;;;12.15;11.18;;;;;;;;;;4977615;28;20030;-65
2022/05/08 11:41:39;;;;;;;12.15;11.25;;;;;;;;;;4976017;28;20035;-64
2022/05/08 11:44:14;;;;;;;11.50;10.70;;;;;;;;;;4974829;28;20495;-64
2022/05/08 11:46:47;;;;;;;11.38;10.57;;;;;;;;;;4976316;28;20035;-64
2022/05/08 11:49:20;;;;;;;11.60;10.80;;;;;;;;;;4981336;28;20045;-64
2022/05/08 11:51:51;;;;;;;12.32;11.32;;;;;;;;;;4981398;28;20048;-64
2022/05/08 11:54:21;;;;;;;12.00;11.00;;;;;;;;;;4976802;28;20042;-64
2022/05/08 11:56:51;;;;;;;11.45;10.55;;;;;;;;;;4975999;28;20031;-63
2022/05/08 11:59:22;;;;;;;12.13;11.43;;;;;;;;;;4980387;28;20053;-64
2022/05/08 12:01:53;;;;;;;12.00;11.18;;;;;;;;;;4975040;28;20728;-65
2022/05/08 12:04:26;;;;;;;12.38;11.57;;;;;;;;;;4978012;28;20162;-64
2022/05/08 12:07:11;;;;;;;11.90;11.10;;;;;;;;;;4976184;28;20031;-64
2022/05/08 12:09:46;;;;;;;12.23;11.27;;;;;;;;;;4982576;28;20535;-64
2022/05/08 12:12:23;;;;;;;12.13;11.23;;;;;;;;;;4980415;28;20043;-67
2022/05/08 12:14:50;;;;;;;13.02;11.95;;;;;;;;;;4977043;28;20485;-66
2022/05/08 12:17:16;;;;;;;12.43;11.52;;;;;;;;;;4981061;28;20056;-65
2022/05/08 12:19:58;;;;;;;12.27;11.30;;;;;;;;;;4978320;28;20461;-65
2022/05/08 12:22:26;;;;;;;12.65;11.85;;;;;;;;;;4982337;28;20038;-65
2022/05/08 12:25:00;;;;;;;12.68;11.65;;;;;;;;;;4981808;28;20453;-65
2022/05/08 12:27:26;;;;;;;12.55;11.68;;;;;;;;;;4980066;28;20041;-65
2022/05/08 12:29:53;;;;;;;12.80;11.90;;;;;;;;;;4986100;28;20053;-65
2022/05/08 12:32:20;;;;;;;12.13;11.32;;;;;;;;;;4980687;28;20023;-65
2022/05/08 12:34:47;;;;;;;12.60;11.68;;;;;;;;;;4984077;28;20413;-65
2022/05/08 12:37:14;;;;;;;12.02;11.00;;;;;;;;;;4984357;28;20041;-64
2022/05/08 12:39:40;;;;;;;12.43;11.63;;;;;;;;;;4981069;28;20515;-65
2022/05/08 12:42:07;;;;;;;12.32;11.23;;;;;;;;;;4975345;28;20433;-65
2022/05/08 12:44:34;;;;;;;12.20;11.30;;;;;;;;;;4977746;28;20041;-65
2022/05/08 12:47:00;;;;;;;12.57;11.57;;;;;;;;;;4982602;28;20492;-65
2022/05/08 12:49:26;;;;;;;13.10;12.13;;;;;;;;;;4977251;28;20042;-65
2022/05/08 12:51:52;;;;;;;12.50;11.63;;;;;;;;;;4977046;28;20038;-65
2022/05/08 12:54:18;;;;;;;12.75;11.65;;;;;;;;;;4983731;28;20440;-64
2022/05/08 12:56:44;;;;;;;12.75;11.93;;;;;;;;;;4978168;28;20667;-64
2022/05/08 13:01:54;;;;;;;12.65;11.70;;;;;;;;;;4985678;28;20038;-65
2022/05/08 13:04:20;;;;;;;12.50;11.70;;;;;;;;;;4984122;28;20641;-65
2022/05/08 13:06:46;;;;;;;13.10;12.10;;;;;;;;;;4977462;28;20112;-66
2022/05/08 13:09:11;;;;;;;12.70;11.90;;;;;;;;;;4983210;28;20034;-65
2022/05/08 13:11:37;;;;;;;11.88;11.07;;;;;;;;;;4981338;28;20030;-65
2022/05/08 13:14:06;;;;;;;11.35;10.63;;;;;;;;;;4982718;28;20416;-65
2022/05/08 13:16:32;;;;;;;;;;;;;;;;;;4978333;28;20026;-65
2022/05/08 13:18:58;;;;;;;12.80;11.80;;;;;;;;;;4984022;28;19918;-65
2022/05/08 13:21:25;;;;;;;12.02;11.00;;;;;;;;;;4976780;28;20056;-66
2022/05/08 13:23:51;;;;;;;12.20;11.20;;;;;;;;;;4980894;28;20441;-65
2022/05/08 13:26:17;;;;;;;11.40;10.45;;;;;;;;;;4983522;28;20568;-65
2022/05/08 13:28:43;;;;;;;12.10;11.30;;;;;;;;;;4978348;28;20030;-65
2022/05/08 13:31:10;;;;;;;12.55;11.63;;;;;;;;;;4985394;28;20034;-65
2022/05/08 13:33:36;;;;;;;12.27;11.30;;;;;;;;;;4976756;28;20046;-64
2022/05/08 13:36:03;;;;;;;12.35;11.48;;;;;;;;;;4977064;28;20034;-65
2022/05/08 13:38:29;;;;;;;13.13;12.02;;;;;;;;;;4980919;28;20611;-65
2022/05/08 13:40:56;;;;;;;13.40;12.15;;;;;;;;;;4977779;28;20489;-65
2022/05/08 13:43:23;;;;;;;12.43;11.55;;;;;;;;;;4973296;28;20117;-65
2022/05/08 13:45:49;;;;;;;12.98;12.00;;;;;;;;;;4973969;28;20031;-65
2022/05/08 13:48:15;;;;;;;11.95;11.05;;;;;;;;;;4984455;28;20084;-65
2022/05/08 13:50:42;;;;;;;12.75;11.85;;;;;;;;;;4981375;28;20029;-66
2022/05/08 13:53:10;;;;;;;12.70;11.80;;;;;;;;;;4973865;28;20068;-65
2022/05/08 13:55:38;;;;;;;12.77;11.55;;;;;;;;;;4982955;28;20027;-65
2022/05/08 13:58:11;;;;;;;13.38;12.30;;;;;;;;;;4982447;28;20047;-65
2022/05/08 14:00:39;;;;;;;12.95;11.93;;;;;;;;;;4973704;28;20093;-64
2022/05/08 14:03:09;;;;;;;13.38;12.30;;;;;;;;;;4981228;28;20034;-65
2022/05/08 14:05:36;;;;;;;12.30;11.40;;;;;;;;;;4980333;28;20058;-65
2022/05/08 14:08:03;;;;;;;12.40;11.38;;;;;;;;;;4971898;28;20031;-65
2022/05/08 14:10:29;;;;;;;12.98;11.98;;;;;;;;;;4979467;28;20034;-65
2022/05/08 14:12:55;;;;;;;12.90;12.00;;;;;;;;;;4982209;28;20126;-65
2022/05/08 14:15:23;;;;;;;12.07;11.20;;;;;;;;;;4972884;28;20030;-65
2022/05/08 14:17:50;;;;;;;12.77;11.85;;;;;;;;;;4975833;28;20034;-65
2022/05/08 14:20:16;;;;;;;12.13;11.32;;;;;;;;;;4982675;28;20034;-66
2022/05/08 14:22:42;;;;;;;12.95;12.05;;;;;;;;;;4983428;28;20053;-65
2022/05/08 14:25:12;;;;;;;12.35;11.45;;;;;;;;;;4986651;28;20053;-65
2022/05/08 14:27:39;;;;;;;13.02;12.05;;;;;;;;;;4983491;28;20030;-65
2022/05/08 14:30:09;;;;;;;12.40;11.60;;;;;;;;;;4981515;28;20039;-64
2022/05/08 14:38:06;;;;;;;12.13;11.15;;;;;;;;;;4981457;28;20597;-65
2022/05/08 14:40:36;;;;;;;12.27;11.48;;;;;;;;;;4980766;28;20069;-65
2022/05/08 14:43:03;;;;;;;12.23;11.35;;;;;;;;;;4972163;28;20405;-64
2022/05/08 14:45:29;;;;;;;11.98;11.15;;;;;;;;;;4981601;28;20050;-65
2022/05/08 14:47:58;;;;;;;12.77;11.85;;;;;;;;;;4980955;28;20089;-67
2022/05/08 14:50:25;;;;;;;11.95;11.00;;;;;;;;;;4979575;28;20613;-66
2022/05/08 14:52:51;;;;;;;12.82;11.52;;;;;;;;;;4986216;28;20089;-66
2022/05/08 14:55:16;;;;;;;12.00;11.10;;;;;;;;;;4985011;28;20038;-65
2022/05/08 14:57:42;;;;;;;12.02;11.13;;;;;;;;;;4981016;28;20031;-65
2022/05/08 15:00:10;;;;;;;12.15;11.10;;;;;;;;;;4982527;28;20085;-64
2022/05/08 15:02:35;;;;;;;12.13;11.32;;;;;;;;;;4972815;28;20031;-65
2022/05/08 15:05:01;;;;;;;12.65;11.75;;;;;;;;;;4981932;28;20441;-65
2022/05/08 15:07:26;;;;;;;12.13;11.07;;;;;;;;;;4980030;28;20043;-65
2022/05/08 15:09:52;;;;;;;12.00;11.02;;;;;;;;;;4978929;28;20058;-64
2022/05/08 15:12:17;;;;;;;12.15;11.25;;;;;;;;;;4986298;28;20038;-65
2022/05/08 15:14:44;;;;;;;12.00;11.07;;;;;;;;;;4985768;28;20039;-65
2022/05/08 15:17:10;;;;;;;12.25;11.25;;;;;;;;;;4979178;28;20062;-66
2022/05/08 15:19:36;;;;;;;11.75;10.75;;;;;;;;;;4980426;28;20611;-65
2022/05/08 15:22:02;;;;;;;12.00;11.20;;;;;;;;;;4985492;28;20043;-65
2022/05/08 15:24:28;;;;;;;12.38;11.57;;;;;;;;;;4979198;28;20040;-65
2022/05/08 15:26:54;;;;;;;12.55;11.75;;;;;;;;;;4983691;28;20062;-64